createdAt,value
2023-05-06T00:00:19.965Z,0.50
2023-05-06T00:01:19.996Z,0.50
2023-05-06T00:02:20.077Z,0.50
2023-05-06T00:03:20.219Z,0.38
2023-05-06T00:04:20.201Z,0.34
2023-05-06T00:05:20.213Z,0.34
2023-05-06T00:06:20.262Z,0.34
2023-05-06T00:07:20.329Z,0.34
2023-05-06T00:08:20.385Z,0.35
2023-05-06T00:09:20.458Z,0.39
2023-05-06T00:10:20.506Z,0.43
2023-05-06T00:11:20.563Z,0.48
2023-05-06T00:12:20.818Z,0.50
2023-05-06T00:13:20.755Z,0.50
2023-05-06T00:14:20.726Z,0.50
2023-05-06T00:15:20.756Z,0.50
2023-05-06T00:16:20.811Z,0.51
2023-05-06T00:17:20.822Z,0.50
2023-05-06T00:18:20.880Z,0.50
2023-05-06T00:19:20.916Z,0.50
2023-05-06T00:20:20.960Z,0.50
2023-05-06T00:21:21.002Z,0.50
2023-05-06T00:22:21.006Z,0.50
2023-05-06T00:23:21.041Z,0.50
2023-05-06T00:24:21.085Z,0.50
2023-05-06T00:25:21.097Z,0.51
2023-05-06T00:26:21.122Z,0.50
2023-05-06T00:27:21.125Z,0.50
2023-05-06T00:28:21.206Z,0.50
2023-05-06T00:29:21.196Z,0.51
2023-05-06T00:30:21.205Z,0.51
2023-05-06T00:31:21.241Z,0.50
2023-05-06T00:32:21.243Z,0.52
2023-05-06T00:33:21.251Z,0.50
2023-05-06T00:34:21.287Z,0.50
2023-05-06T00:35:21.297Z,0.51
2023-05-06T00:36:21.296Z,0.50
2023-05-06T00:37:21.311Z,0.51
2023-05-06T00:38:21.330Z,0.50
2023-05-06T00:39:21.338Z,0.51
2023-05-06T00:40:21.348Z,0.51
2023-05-06T00:41:21.367Z,0.51
2023-05-06T00:42:21.391Z,0.51
2023-05-06T00:43:21.429Z,0.51
2023-05-06T00:44:21.703Z,0.51
2023-05-06T00:45:21.433Z,0.51
2023-05-06T00:46:21.616Z,0.51
2023-05-06T00:47:21.461Z,0.51
2023-05-06T00:48:21.469Z,0.51
2023-05-06T00:49:21.491Z,0.51
2023-05-06T00:50:21.540Z,0.51
2023-05-06T00:51:21.503Z,0.51
2023-05-06T00:52:21.533Z,0.50
2023-05-06T00:53:21.608Z,0.52
2023-05-06T00:54:21.597Z,0.51
2023-05-06T00:55:21.611Z,0.51
2023-05-06T00:56:21.638Z,0.50
2023-05-06T00:57:21.664Z,0.50
2023-05-06T00:58:21.695Z,0.50
2023-05-06T00:59:21.698Z,0.51
2023-05-06T01:00:21.848Z,0.50
2023-05-06T01:01:21.777Z,0.51
2023-05-06T01:02:22.551Z,0.51
2023-05-06T01:03:22.053Z,0.51
2023-05-06T01:04:22.006Z,0.51
2023-05-06T01:05:22.045Z,0.50
2023-05-06T01:06:24.398Z,0.51
2023-05-06T01:07:22.087Z,0.51
2023-05-06T01:08:22.062Z,0.52
2023-05-06T01:09:22.015Z,0.51
2023-05-06T01:10:22.040Z,0.51
2023-05-06T01:11:22.008Z,0.50
2023-05-06T01:12:21.995Z,0.50
2023-05-06T01:13:22.008Z,0.50
2023-05-06T01:14:21.980Z,0.51
2023-05-06T01:15:21.972Z,0.51
2023-05-06T01:16:22.079Z,0.51
2023-05-06T01:17:21.994Z,0.52
2023-05-06T01:18:21.964Z,0.51
2023-05-06T01:19:21.946Z,0.50
2023-05-06T01:20:21.947Z,0.51
2023-05-06T01:21:21.934Z,0.50
2023-05-06T01:22:21.924Z,0.51
2023-05-06T01:23:21.923Z,0.50
2023-05-06T01:24:21.911Z,0.50
2023-05-06T01:25:21.916Z,0.51
2023-05-06T01:26:21.891Z,0.51
2023-05-06T01:27:21.915Z,0.51
2023-05-06T01:28:21.886Z,0.51
2023-05-06T01:29:21.879Z,0.51
2023-05-06T01:30:21.889Z,0.51
2023-05-06T01:31:21.885Z,0.51
2023-05-06T01:32:22.039Z,0.51
2023-05-06T01:33:21.850Z,0.50
2023-05-06T01:34:21.854Z,0.51
2023-05-06T01:35:21.846Z,0.51
2023-05-06T01:36:21.833Z,0.51
2023-05-06T01:37:21.824Z,0.50
2023-05-06T01:38:21.823Z,0.50
2023-05-06T01:39:21.804Z,0.51
2023-05-06T01:40:21.803Z,0.51
2023-05-06T01:41:21.795Z,0.50
2023-05-06T01:42:21.796Z,0.51
2023-05-06T01:43:21.786Z,0.51
2023-05-06T01:44:21.783Z,0.51
2023-05-06T01:45:21.781Z,0.51
2023-05-06T01:46:21.859Z,0.50
2023-05-06T01:47:21.759Z,0.50
2023-05-06T01:48:21.847Z,0.51
2023-05-06T01:49:21.745Z,0.52
2023-05-06T01:50:21.735Z,0.52
2023-05-06T01:51:21.741Z,0.51
2023-05-06T01:52:21.730Z,0.51
2023-05-06T01:53:21.721Z,0.52
2023-05-06T01:54:21.757Z,0.51
2023-05-06T01:55:21.705Z,0.50
2023-05-06T01:56:21.703Z,0.50
2023-05-06T01:57:21.705Z,0.52
2023-05-06T01:58:21.697Z,0.50
2023-05-06T01:59:21.676Z,0.51
2023-05-06T02:00:21.685Z,0.51
2023-05-06T02:01:21.701Z,0.52
2023-05-06T02:02:21.680Z,0.51
2023-05-06T02:03:21.754Z,0.51
2023-05-06T02:04:21.745Z,0.51
2023-05-06T02:05:21.684Z,0.50
2023-05-06T02:06:21.715Z,0.50
2023-05-06T02:07:21.691Z,0.50
2023-05-06T02:08:21.705Z,0.51
2023-05-06T02:09:21.688Z,0.51
2023-05-06T02:10:21.696Z,0.50
2023-05-06T02:11:21.681Z,0.51
2023-05-06T02:12:21.688Z,0.51
2023-05-06T02:13:21.722Z,0.51
2023-05-06T02:14:21.705Z,0.52
2023-05-06T02:15:21.757Z,0.51
2023-05-06T02:16:21.827Z,0.51
2023-05-06T02:17:21.817Z,0.51
2023-05-06T02:18:21.805Z,0.51
2023-05-06T02:19:21.792Z,0.51
2023-05-06T02:20:21.827Z,0.51
2023-05-06T02:21:21.805Z,0.50
2023-05-06T02:22:21.805Z,0.52
2023-05-06T02:23:21.811Z,0.51
2023-05-06T02:24:21.803Z,0.52
2023-05-06T02:25:21.800Z,0.51
2023-05-06T02:26:21.809Z,0.52
2023-05-06T02:27:21.809Z,0.51
2023-05-06T02:28:21.816Z,0.51
2023-05-06T02:29:21.816Z,0.51
2023-05-06T02:30:21.806Z,0.52
2023-05-06T02:31:21.819Z,0.51
2023-05-06T02:32:21.873Z,0.51
2023-05-06T02:33:21.916Z,0.51
2023-05-06T02:34:21.924Z,0.51
2023-05-06T02:35:21.971Z,0.51
2023-05-06T02:36:22.161Z,0.51
2023-05-06T02:37:22.025Z,0.51
2023-05-06T02:38:22.031Z,0.50
2023-05-06T02:39:22.031Z,0.51
2023-05-06T02:40:22.036Z,0.51
2023-05-06T02:41:22.045Z,0.51
2023-05-06T02:42:22.059Z,0.51
2023-05-06T02:43:22.035Z,0.51
2023-05-06T02:44:22.040Z,0.51
2023-05-06T02:45:22.046Z,0.51
2023-05-06T02:46:22.120Z,0.51
2023-05-06T02:47:22.076Z,0.51
2023-05-06T02:48:22.052Z,0.51
2023-05-06T02:49:22.049Z,0.51
2023-05-06T02:50:22.044Z,0.51
2023-05-06T02:51:22.037Z,0.51
2023-05-06T02:52:22.131Z,0.51
2023-05-06T02:53:22.101Z,0.50
2023-05-06T02:54:22.040Z,0.51
2023-05-06T02:55:22.066Z,0.51
2023-05-06T02:56:22.066Z,0.51
2023-05-06T02:57:22.060Z,0.51
2023-05-06T02:58:22.061Z,0.51
2023-05-06T02:59:22.076Z,0.51
2023-05-06T03:00:22.072Z,0.52
2023-05-06T03:01:22.103Z,0.50
2023-05-06T03:02:22.081Z,0.52
2023-05-06T03:03:22.073Z,0.50
2023-05-06T03:04:22.070Z,0.51
2023-05-06T03:05:22.083Z,0.51
2023-05-06T03:06:22.068Z,0.52
2023-05-06T03:07:22.078Z,0.51
2023-05-06T03:08:22.244Z,0.51
2023-05-06T03:09:22.216Z,0.51
2023-05-06T03:10:22.187Z,0.51
2023-05-06T03:11:22.200Z,0.52
2023-05-06T03:12:22.241Z,0.52
2023-05-06T03:13:22.331Z,0.51
2023-05-06T03:14:22.254Z,0.51
2023-05-06T03:15:22.248Z,0.51
2023-05-06T03:16:22.276Z,0.51
2023-05-06T03:17:22.232Z,0.51
2023-05-06T03:18:22.233Z,0.51
2023-05-06T03:19:22.234Z,0.50
2023-05-06T03:20:22.237Z,0.51
2023-05-06T03:21:22.380Z,0.51
2023-05-06T03:22:22.341Z,0.52
2023-05-06T03:23:22.344Z,0.52
2023-05-06T03:24:22.499Z,0.51
2023-05-06T03:25:22.374Z,0.51
2023-05-06T03:26:22.379Z,0.51
2023-05-06T03:27:22.366Z,0.50
2023-05-06T03:28:22.372Z,0.51
2023-05-06T03:29:22.373Z,0.51
2023-05-06T03:30:22.398Z,0.52
2023-05-06T03:31:22.434Z,0.51
2023-05-06T03:32:22.368Z,0.51
2023-05-06T03:33:22.380Z,0.51
2023-05-06T03:34:22.357Z,0.51
2023-05-06T03:35:22.400Z,0.51
2023-05-06T03:36:22.430Z,0.52
2023-05-06T03:37:22.451Z,0.51
2023-05-06T03:38:22.468Z,0.50
2023-05-06T03:39:22.460Z,0.51
2023-05-06T03:40:22.524Z,0.50
2023-05-06T03:41:22.457Z,0.51
2023-05-06T03:42:22.475Z,0.51
2023-05-06T03:43:22.468Z,0.50
2023-05-06T03:44:22.476Z,0.51
2023-05-06T03:45:22.471Z,0.52
2023-05-06T03:46:22.540Z,0.51
2023-05-06T03:47:22.482Z,0.52
2023-05-06T03:48:22.481Z,0.51
2023-05-06T03:49:22.482Z,0.51
2023-05-06T03:50:22.484Z,0.52
2023-05-06T03:51:22.491Z,0.51
2023-05-06T03:52:22.488Z,0.51
2023-05-06T03:53:22.515Z,0.52
2023-05-06T03:54:22.496Z,0.51
2023-05-06T03:55:22.506Z,0.51
2023-05-06T03:56:22.616Z,0.52
2023-05-06T03:57:22.518Z,0.51
2023-05-06T03:58:22.509Z,0.51
2023-05-06T03:59:22.521Z,0.52
2023-05-06T04:00:22.554Z,0.52
2023-05-06T04:01:22.590Z,0.51
2023-05-06T04:02:22.814Z,0.52
2023-05-06T04:03:22.741Z,0.52
2023-05-06T04:04:22.682Z,0.51
2023-05-06T04:05:22.700Z,0.51
2023-05-06T04:06:22.689Z,0.50
2023-05-06T04:07:22.727Z,0.50
2023-05-06T04:08:22.694Z,0.51
2023-05-06T04:09:22.702Z,0.52
2023-05-06T04:10:22.765Z,0.51
2023-05-06T04:11:22.783Z,0.52
2023-05-06T04:12:22.817Z,0.50
2023-05-06T04:13:23.183Z,0.51
2023-05-06T04:14:22.813Z,0.51
2023-05-06T04:15:22.812Z,0.51
2023-05-06T04:16:22.933Z,0.51
2023-05-06T04:17:22.895Z,0.51
2023-05-06T04:18:22.931Z,0.51
2023-05-06T04:19:22.938Z,0.51
2023-05-06T04:20:22.949Z,0.50
2023-05-06T04:21:22.938Z,0.51
2023-05-06T04:22:22.928Z,0.51
2023-05-06T04:23:22.933Z,0.52
2023-05-06T04:24:22.926Z,0.52
2023-05-06T04:25:22.952Z,0.51
2023-05-06T04:26:22.964Z,0.52
2023-05-06T04:27:22.972Z,0.52
2023-05-06T04:28:23.143Z,0.52
2023-05-06T04:29:22.986Z,0.52
2023-05-06T04:30:22.992Z,0.52
2023-05-06T04:31:23.007Z,0.51
2023-05-06T04:32:23.036Z,0.52
2023-05-06T04:33:23.033Z,0.51
2023-05-06T04:34:23.053Z,0.51
2023-05-06T04:35:23.036Z,0.51
2023-05-06T04:36:23.077Z,0.51
2023-05-06T04:37:23.101Z,0.51
2023-05-06T04:38:23.115Z,0.51
2023-05-06T04:39:23.133Z,0.51
2023-05-06T04:40:23.135Z,0.51
2023-05-06T04:41:23.145Z,0.51
2023-05-06T04:42:23.170Z,0.51
2023-05-06T04:43:23.180Z,0.51
2023-05-06T04:44:23.188Z,0.51
2023-05-06T04:45:23.159Z,0.51
2023-05-06T04:46:23.397Z,0.51
2023-05-06T04:47:23.211Z,0.51
2023-05-06T04:48:23.208Z,0.51
2023-05-06T04:49:23.303Z,0.51
2023-05-06T04:50:23.226Z,0.51
2023-05-06T04:51:23.253Z,0.52
2023-05-06T04:52:23.223Z,0.52
2023-05-06T04:53:23.245Z,0.52
2023-05-06T04:54:23.216Z,0.51
2023-05-06T04:55:23.251Z,0.51
2023-05-06T04:56:23.229Z,0.52
2023-05-06T04:57:23.225Z,0.52
2023-05-06T04:58:23.233Z,0.51
2023-05-06T04:59:23.250Z,0.51
2023-05-06T05:00:23.374Z,0.52
2023-05-06T05:01:23.287Z,0.51
2023-05-06T05:02:23.291Z,0.51
2023-05-06T05:03:23.408Z,0.51
2023-05-06T05:04:23.276Z,0.51
2023-05-06T05:05:23.256Z,0.51
2023-05-06T05:06:23.261Z,0.51
2023-05-06T05:07:23.268Z,0.51
2023-05-06T05:08:23.344Z,0.51
2023-05-06T05:09:23.280Z,0.51
2023-05-06T05:10:23.302Z,0.51
2023-05-06T05:11:23.269Z,0.52
2023-05-06T05:12:23.308Z,0.51
2023-05-06T05:13:23.274Z,0.51
2023-05-06T05:14:23.265Z,0.51
2023-05-06T05:15:23.292Z,0.52
2023-05-06T05:16:23.388Z,0.51
2023-05-06T05:17:23.282Z,0.51
2023-05-06T05:18:23.313Z,0.51
2023-05-06T05:19:23.258Z,0.51
2023-05-06T05:20:23.255Z,0.51
2023-05-06T05:21:23.259Z,0.51
2023-05-06T05:22:23.270Z,0.51
2023-05-06T05:23:23.302Z,0.51
2023-05-06T05:24:23.286Z,0.51
2023-05-06T05:25:23.315Z,0.52
2023-05-06T05:26:23.321Z,0.51
2023-05-06T05:27:23.302Z,0.52
2023-05-06T05:28:23.307Z,0.51
2023-05-06T05:29:23.301Z,0.50
2023-05-06T05:30:23.327Z,0.51
2023-05-06T05:31:23.335Z,0.51
2023-05-06T05:32:23.441Z,0.52
2023-05-06T05:33:23.353Z,0.51
2023-05-06T05:34:23.301Z,0.51
2023-05-06T05:35:23.356Z,0.50
2023-05-06T05:36:23.293Z,0.51
2023-05-06T05:37:23.285Z,0.50
2023-05-06T05:38:23.292Z,0.51
2023-05-06T05:39:23.305Z,0.50
2023-05-06T05:40:23.331Z,0.51
2023-05-06T05:41:23.300Z,0.51
2023-05-06T05:42:23.315Z,0.51
2023-05-06T05:43:23.329Z,0.51
2023-05-06T05:44:23.324Z,0.52
2023-05-06T05:45:23.389Z,0.51
2023-05-06T05:46:23.439Z,0.51
2023-05-06T05:47:23.428Z,0.50
2023-05-06T05:48:23.505Z,0.50
2023-05-06T05:49:23.371Z,0.53
2023-05-06T05:50:23.400Z,0.51
2023-05-06T05:51:23.373Z,0.50
2023-05-06T05:52:23.373Z,0.50
2023-05-06T05:53:23.436Z,0.51
2023-05-06T05:54:23.380Z,0.52
2023-05-06T05:55:23.382Z,0.51
2023-05-06T05:56:23.417Z,0.53
2023-05-06T05:57:23.397Z,0.51
2023-05-06T05:58:23.425Z,0.51
2023-05-06T05:59:23.390Z,0.50
2023-05-06T06:00:23.416Z,0.51
2023-05-06T06:01:23.421Z,0.50
2023-05-06T06:02:23.504Z,0.51
2023-05-06T06:03:23.545Z,0.51
2023-05-06T06:04:23.627Z,0.52
2023-05-06T06:05:23.460Z,0.54
2023-05-06T06:06:23.445Z,0.51
2023-05-06T06:07:23.457Z,0.52
2023-05-06T06:08:23.470Z,0.51
2023-05-06T06:09:23.496Z,0.51
2023-05-06T06:10:23.584Z,0.52
2023-05-06T06:11:23.516Z,0.54
2023-05-06T06:12:23.605Z,0.57
2023-05-06T06:13:24.181Z,0.60
2023-05-06T06:14:23.576Z,0.62
2023-05-06T06:15:23.621Z,0.59
2023-05-06T06:16:23.711Z,0.64
2023-05-06T06:17:23.698Z,0.67
2023-05-06T06:18:24.211Z,0.66
2023-05-06T06:19:23.694Z,0.63
2023-05-06T06:20:23.937Z,0.64
2023-05-06T06:21:23.794Z,0.65
2023-05-06T06:22:23.847Z,0.69
2023-05-06T06:23:23.906Z,0.69
2023-05-06T06:24:23.952Z,0.66
2023-05-06T06:25:24.051Z,0.67
2023-05-06T06:26:24.054Z,0.67
2023-05-06T06:27:24.270Z,0.67
2023-05-06T06:28:24.141Z,0.66
2023-05-06T06:29:24.169Z,0.65
2023-05-06T06:30:24.250Z,0.64
2023-05-06T06:31:24.263Z,0.60
2023-05-06T06:32:24.245Z,0.58
2023-05-06T06:33:24.258Z,0.59
2023-05-06T06:34:24.321Z,0.59
2023-05-06T06:35:24.346Z,0.56
2023-05-06T06:36:24.486Z,0.55
2023-05-06T06:37:24.377Z,0.57
2023-05-06T06:38:24.448Z,0.57
2023-05-06T06:39:24.451Z,0.56
2023-05-06T06:40:24.479Z,0.54
2023-05-06T06:41:24.537Z,0.55
2023-05-06T06:42:24.548Z,0.55
2023-05-06T06:43:24.559Z,0.55
2023-05-06T06:44:24.570Z,0.55
2023-05-06T06:45:24.586Z,0.54
2023-05-06T06:46:24.671Z,0.54
2023-05-06T06:47:24.644Z,0.54
2023-05-06T06:48:24.625Z,0.54
2023-05-06T06:49:24.631Z,0.54
2023-05-06T06:50:24.652Z,0.54
2023-05-06T06:51:24.645Z,0.56
2023-05-06T06:52:24.800Z,0.52
2023-05-06T06:53:24.708Z,0.54
2023-05-06T06:54:24.692Z,0.51
2023-05-06T06:55:24.756Z,0.51
2023-05-06T06:56:24.765Z,0.52
2023-05-06T06:57:24.775Z,0.54
2023-05-06T06:58:24.804Z,0.56
2023-05-06T06:59:24.844Z,0.56
2023-05-06T07:00:24.889Z,0.61
2023-05-06T07:01:24.984Z,0.64
2023-05-06T07:02:25.021Z,0.66
2023-05-06T07:03:25.063Z,0.69
2023-05-06T07:04:25.201Z,0.73
2023-05-06T07:05:25.146Z,0.74
2023-05-06T07:06:25.172Z,0.74
2023-05-06T07:07:25.199Z,0.77
2023-05-06T07:08:25.249Z,0.76
2023-05-06T07:09:25.217Z,0.77
2023-05-06T07:10:25.265Z,0.79
2023-05-06T07:11:25.328Z,0.80
2023-05-06T07:12:25.378Z,0.80
2023-05-06T07:13:25.468Z,0.85
2023-05-06T07:14:25.484Z,0.85
2023-05-06T07:15:25.552Z,0.86
2023-05-06T07:16:25.566Z,0.87
2023-05-06T07:17:25.637Z,0.87
2023-05-06T07:18:25.549Z,0.89
2023-05-06T07:19:25.550Z,0.88
2023-05-06T07:20:25.722Z,0.87
2023-05-06T07:21:25.547Z,0.89
2023-05-06T07:22:25.551Z,0.89
2023-05-06T07:23:25.591Z,0.88
2023-05-06T07:24:25.765Z,0.86
2023-05-06T07:25:25.563Z,0.88
2023-05-06T07:26:25.585Z,0.89
2023-05-06T07:27:25.571Z,0.87
2023-05-06T07:28:25.594Z,0.88
2023-05-06T07:29:25.561Z,0.88
2023-05-06T07:30:25.635Z,0.89
2023-05-06T07:31:25.601Z,0.88
2023-05-06T07:32:25.591Z,0.89
2023-05-06T07:33:25.646Z,0.89
2023-05-06T07:34:25.610Z,0.89
2023-05-06T07:35:25.659Z,0.88
2023-05-06T07:36:25.674Z,0.85
2023-05-06T07:37:25.682Z,0.83
2023-05-06T07:38:25.673Z,0.84
2023-05-06T07:39:25.708Z,0.84
2023-05-06T07:40:25.727Z,0.85
2023-05-06T07:41:25.720Z,0.86
2023-05-06T07:42:25.753Z,0.84
2023-05-06T07:43:25.723Z,0.85
2023-05-06T07:44:25.699Z,0.85
2023-05-06T07:45:25.703Z,0.84
2023-05-06T07:46:25.809Z,0.84
2023-05-06T07:47:25.858Z,0.85
2023-05-06T07:48:25.832Z,0.84
2023-05-06T07:49:25.733Z,0.85
2023-05-06T07:50:25.757Z,0.83
2023-05-06T07:51:25.784Z,0.85
2023-05-06T07:52:25.846Z,0.83
2023-05-06T07:53:25.873Z,0.83
2023-05-06T07:54:25.906Z,0.83
2023-05-06T07:55:25.937Z,0.81
2023-05-06T07:56:26.030Z,0.82
2023-05-06T07:57:26.078Z,0.81
2023-05-06T07:58:26.115Z,0.82
2023-05-06T07:59:26.160Z,0.83
2023-05-06T08:00:26.244Z,0.82
2023-05-06T08:01:26.268Z,0.80
2023-05-06T08:02:26.444Z,0.81
2023-05-06T08:03:26.702Z,0.82
2023-05-06T08:04:26.502Z,0.81
2023-05-06T08:05:26.486Z,0.81
2023-05-06T08:06:26.529Z,0.80
2023-05-06T08:07:26.555Z,0.80
2023-05-06T08:08:26.681Z,0.81
2023-05-06T08:09:26.667Z,0.80
2023-05-06T08:10:26.748Z,0.81
2023-05-06T08:11:26.793Z,0.81
2023-05-06T08:12:26.877Z,0.82
2023-05-06T08:13:26.916Z,0.81
2023-05-06T08:14:26.987Z,0.82
2023-05-06T08:15:27.105Z,0.83
2023-05-06T08:16:27.172Z,0.83
2023-05-06T08:17:27.168Z,0.80
2023-05-06T08:18:27.283Z,0.80
2023-05-06T08:19:27.285Z,0.81
2023-05-06T08:20:27.334Z,0.81
2023-05-06T08:21:27.370Z,0.80
2023-05-06T08:22:27.436Z,0.80
2023-05-06T08:23:27.486Z,0.79
2023-05-06T08:24:27.546Z,0.91
2023-05-06T08:25:27.600Z,0.88
2023-05-06T08:26:27.640Z,0.85
2023-05-06T08:27:27.693Z,0.82
2023-05-06T08:28:27.832Z,0.80
2023-05-06T08:29:27.811Z,0.79
2023-05-06T08:30:27.860Z,0.77
2023-05-06T08:31:27.944Z,0.76
2023-05-06T08:32:28.000Z,0.75
2023-05-06T08:33:28.009Z,0.76
2023-05-06T08:34:28.069Z,0.76
2023-05-06T08:35:28.155Z,0.74
2023-05-06T08:36:28.194Z,0.75
2023-05-06T08:37:28.252Z,0.72
2023-05-06T08:38:28.296Z,0.69
2023-05-06T08:39:28.336Z,0.69
2023-05-06T08:40:28.386Z,0.68
2023-05-06T08:41:28.418Z,0.70
2023-05-06T08:42:28.473Z,0.71
2023-05-06T08:43:28.501Z,0.70
2023-05-06T08:44:28.696Z,0.73
2023-05-06T08:45:29.621Z,0.70
2023-05-06T08:46:28.622Z,0.69
2023-05-06T08:47:28.674Z,0.73
2023-05-06T08:48:28.747Z,0.78
2023-05-06T08:49:28.776Z,0.79
2023-05-06T08:50:28.809Z,0.79
2023-05-06T08:51:28.877Z,0.77
2023-05-06T08:52:28.941Z,0.78
2023-05-06T08:53:29.034Z,0.79
2023-05-06T08:54:29.073Z,0.80
2023-05-06T08:55:29.134Z,0.82
2023-05-06T08:56:29.188Z,0.84
2023-05-06T08:57:29.246Z,0.84
2023-05-06T08:58:29.304Z,0.86
2023-05-06T08:59:29.356Z,0.88
2023-05-06T09:00:29.559Z,0.89
2023-05-06T09:01:29.497Z,0.89
2023-05-06T09:02:29.600Z,0.92
2023-05-06T09:03:29.625Z,0.94
2023-05-06T09:04:29.587Z,0.95
2023-05-06T09:05:29.633Z,0.96
2023-05-06T09:06:29.682Z,0.97
2023-05-06T09:07:29.733Z,0.99
2023-05-06T09:08:29.780Z,0.99
2023-05-06T09:09:29.846Z,0.98
2023-05-06T09:10:29.881Z,0.99
2023-05-06T09:11:29.904Z,1.01
2023-05-06T09:12:29.950Z,1.00
2023-05-06T09:13:30.011Z,1.00
2023-05-06T09:14:30.045Z,1.01
2023-05-06T09:15:30.087Z,1.00
2023-05-06T09:16:30.271Z,0.99
2023-05-06T09:17:30.182Z,1.00
2023-05-06T09:18:30.184Z,1.00
2023-05-06T09:19:30.227Z,1.02
2023-05-06T09:20:30.220Z,0.99
2023-05-06T09:21:30.256Z,1.00
2023-05-06T09:22:30.283Z,1.01
2023-05-06T09:23:30.318Z,1.02
2023-05-06T09:24:30.351Z,1.03
2023-05-06T09:25:30.400Z,1.05
2023-05-06T09:26:30.436Z,1.08
2023-05-06T09:27:30.472Z,1.07
2023-05-06T09:28:30.518Z,1.09
2023-05-06T09:29:30.556Z,1.08
2023-05-06T09:30:30.598Z,1.09
2023-05-06T09:31:30.684Z,1.14
2023-05-06T09:32:30.760Z,1.15
2023-05-06T09:33:30.647Z,1.17
2023-05-06T09:34:30.678Z,1.17
2023-05-06T09:35:30.720Z,1.19
2023-05-06T09:36:30.754Z,1.19
2023-05-06T09:37:30.806Z,1.22
2023-05-06T09:38:30.808Z,1.20
2023-05-06T09:39:30.816Z,1.25
2023-05-06T09:40:30.812Z,1.26
2023-05-06T09:41:30.829Z,1.28
2023-05-06T09:42:30.831Z,1.29
2023-05-06T09:43:30.855Z,1.31
2023-05-06T09:44:30.890Z,1.31
2023-05-06T09:45:30.898Z,1.35
2023-05-06T09:46:30.956Z,1.34
2023-05-06T09:47:30.941Z,1.37
2023-05-06T09:48:31.035Z,1.40
2023-05-06T09:49:30.960Z,1.39
2023-05-06T09:50:31.016Z,1.42
2023-05-06T09:51:31.079Z,1.44
2023-05-06T09:52:31.100Z,1.44
2023-05-06T09:53:31.038Z,1.43
2023-05-06T09:54:31.059Z,1.45
2023-05-06T09:55:31.107Z,1.49
2023-05-06T09:56:31.091Z,1.51
2023-05-06T09:57:31.103Z,1.48
2023-05-06T09:58:31.110Z,1.49
2023-05-06T09:59:31.134Z,1.53
2023-05-06T10:00:31.161Z,1.54
2023-05-06T10:01:36.921Z,1.53
2023-05-06T10:02:31.307Z,1.54
2023-05-06T10:03:31.252Z,1.55
2023-05-06T10:04:31.424Z,1.58
2023-05-06T10:05:31.314Z,1.61
2023-05-06T10:06:31.142Z,1.66
2023-05-06T10:07:31.147Z,1.69
2023-05-06T10:08:31.129Z,1.70
2023-05-06T10:09:31.133Z,1.70
2023-05-06T10:10:31.155Z,1.70
2023-05-06T10:11:31.108Z,1.74
2023-05-06T10:12:31.102Z,1.76
2023-05-06T10:13:31.101Z,1.77
2023-05-06T10:14:31.098Z,1.79
2023-05-06T10:15:31.087Z,1.78
2023-05-06T10:16:31.153Z,1.81
2023-05-06T10:17:31.070Z,1.84
2023-05-06T10:18:31.068Z,1.84
2023-05-06T10:19:31.054Z,1.83
2023-05-06T10:20:31.396Z,1.84
2023-05-06T10:21:31.051Z,1.87
2023-05-06T10:22:31.056Z,1.86
2023-05-06T10:23:31.030Z,1.82
2023-05-06T10:24:31.027Z,1.85
2023-05-06T10:25:31.022Z,1.86
2023-05-06T10:26:31.021Z,1.84
2023-05-06T10:27:31.010Z,1.86
2023-05-06T10:28:31.823Z,1.84
2023-05-06T10:29:30.995Z,1.85
2023-05-06T10:30:30.974Z,1.85
2023-05-06T10:31:30.997Z,1.85
2023-05-06T10:32:30.989Z,1.84
2023-05-06T10:33:30.952Z,1.84
2023-05-06T10:34:30.938Z,1.81
2023-05-06T10:35:30.935Z,1.82
2023-05-06T10:36:31.082Z,1.80
2023-05-06T10:37:30.923Z,1.80
2023-05-06T10:38:30.920Z,1.81
2023-05-06T10:39:30.919Z,1.77
2023-05-06T10:40:30.893Z,1.80
2023-05-06T10:41:30.899Z,1.77
2023-05-06T10:42:30.884Z,1.76
2023-05-06T10:43:30.875Z,1.79
2023-05-06T10:44:30.938Z,1.76
2023-05-06T10:45:30.914Z,1.72
2023-05-06T10:46:30.975Z,1.73
2023-05-06T10:47:30.881Z,1.75
2023-05-06T10:48:30.853Z,1.72
2023-05-06T10:49:30.836Z,1.75
2023-05-06T10:50:30.826Z,1.71
2023-05-06T10:51:30.822Z,1.71
2023-05-06T10:52:30.969Z,1.71
2023-05-06T10:53:30.808Z,1.69
2023-05-06T10:54:30.802Z,1.67
2023-05-06T10:55:30.780Z,1.65
2023-05-06T10:56:30.802Z,1.62
2023-05-06T10:57:30.822Z,1.64
2023-05-06T10:58:30.850Z,1.62
2023-05-06T10:59:30.888Z,1.63
2023-05-06T11:00:30.916Z,1.65
2023-05-06T11:01:31.061Z,1.63
2023-05-06T11:02:31.055Z,1.63
2023-05-06T11:03:31.116Z,1.62
2023-05-06T11:04:31.094Z,1.59
2023-05-06T11:05:31.094Z,1.58
2023-05-06T11:06:31.145Z,1.58
2023-05-06T11:07:31.180Z,1.59
2023-05-06T11:08:31.309Z,1.55
2023-05-06T11:09:31.259Z,1.58
2023-05-06T11:10:31.302Z,1.55
2023-05-06T11:11:31.334Z,1.57
2023-05-06T11:12:31.366Z,1.56
2023-05-06T11:13:31.503Z,1.53
2023-05-06T11:14:31.444Z,1.56
2023-05-06T11:15:31.490Z,1.55
2023-05-06T11:16:31.556Z,1.54
2023-05-06T11:17:31.602Z,1.52
2023-05-06T11:18:31.621Z,1.53
2023-05-06T11:19:31.674Z,1.55
2023-05-06T11:20:31.727Z,1.55
2023-05-06T11:21:31.782Z,1.53
2023-05-06T11:22:31.817Z,1.53
2023-05-06T11:23:31.842Z,1.51
2023-05-06T11:24:32.004Z,1.52
2023-05-06T11:25:31.900Z,1.51
2023-05-06T11:26:31.958Z,1.52
2023-05-06T11:27:31.998Z,1.51
2023-05-06T11:28:32.066Z,1.54
2023-05-06T11:29:32.087Z,1.50
2023-05-06T11:30:32.134Z,1.52
2023-05-06T11:31:32.269Z,1.49
2023-05-06T11:32:32.216Z,1.49
2023-05-06T11:33:32.243Z,1.49
2023-05-06T11:34:32.293Z,1.51
2023-05-06T11:35:32.343Z,1.51
2023-05-06T11:36:32.374Z,1.51
2023-05-06T11:37:32.433Z,1.51
2023-05-06T11:38:32.479Z,1.52
2023-05-06T11:39:36.530Z,1.52
2023-05-06T11:40:32.594Z,1.52
2023-05-06T11:41:32.496Z,1.53
2023-05-06T11:42:32.485Z,1.53
2023-05-06T11:43:32.474Z,1.52
2023-05-06T11:44:32.471Z,1.52
2023-05-06T11:45:32.465Z,1.51
2023-05-06T11:46:32.806Z,1.51
2023-05-06T11:47:32.489Z,1.52
2023-05-06T11:48:32.455Z,1.50
2023-05-06T11:49:32.744Z,1.49
2023-05-06T11:50:32.436Z,1.49
2023-05-06T11:51:32.427Z,1.49
2023-05-06T11:52:32.416Z,1.48
2023-05-06T11:53:32.416Z,1.47
2023-05-06T11:54:32.398Z,1.46
2023-05-06T11:55:32.390Z,1.46
2023-05-06T11:56:32.506Z,1.47
2023-05-06T11:57:32.382Z,1.46
2023-05-06T11:58:32.409Z,1.48
2023-05-06T11:59:32.407Z,1.46
2023-05-06T12:00:32.359Z,1.46
2023-05-06T12:01:32.348Z,1.46
2023-05-06T12:02:32.410Z,1.46
2023-05-06T12:03:32.652Z,1.46
2023-05-06T12:04:32.393Z,1.45
2023-05-06T12:05:32.354Z,1.42
2023-05-06T12:06:32.375Z,1.44
2023-05-06T12:07:32.440Z,1.45
2023-05-06T12:08:32.471Z,1.44
2023-05-06T12:09:32.536Z,1.43
2023-05-06T12:10:32.552Z,1.43
2023-05-06T12:11:32.596Z,1.42
2023-05-06T12:12:32.763Z,1.41
2023-05-06T12:13:32.650Z,1.41
2023-05-06T12:14:32.730Z,1.39
2023-05-06T12:15:32.746Z,1.40
2023-05-06T12:16:32.822Z,1.39
2023-05-06T12:17:32.841Z,1.39
2023-05-06T12:18:32.869Z,1.37
2023-05-06T12:19:33.012Z,1.36
2023-05-06T12:20:32.936Z,1.36
2023-05-06T12:21:32.981Z,1.35
2023-05-06T12:22:33.001Z,1.36
2023-05-06T12:23:33.076Z,1.36
2023-05-06T12:24:33.055Z,1.35
2023-05-06T12:25:33.057Z,1.36
2023-05-06T12:26:33.081Z,1.34
2023-05-06T12:27:33.152Z,1.32
2023-05-06T12:28:33.165Z,1.32
2023-05-06T12:29:33.155Z,1.31
2023-05-06T12:30:33.204Z,1.32
2023-05-06T12:31:33.249Z,1.32
2023-05-06T12:32:33.344Z,1.31
2023-05-06T12:33:33.303Z,1.31
2023-05-06T12:34:33.363Z,1.31
2023-05-06T12:35:33.401Z,1.28
2023-05-06T12:36:33.459Z,1.29
2023-05-06T12:37:33.498Z,1.30
2023-05-06T12:38:33.540Z,1.29
2023-05-06T12:39:33.595Z,1.28
2023-05-06T12:40:33.649Z,1.28
2023-05-06T12:41:33.694Z,1.28
2023-05-06T12:42:33.727Z,1.26
2023-05-06T12:43:33.765Z,1.27
2023-05-06T12:44:34.018Z,1.25
2023-05-06T12:45:33.861Z,1.25
2023-05-06T12:46:33.933Z,1.25
2023-05-06T12:47:33.952Z,1.27
2023-05-06T12:48:34.029Z,1.25
2023-05-06T12:49:34.024Z,1.24
2023-05-06T12:50:34.073Z,1.23
2023-05-06T12:51:34.122Z,1.25
2023-05-06T12:52:34.168Z,1.22
2023-05-06T12:53:34.216Z,1.23
2023-05-06T12:54:34.271Z,1.23
2023-05-06T12:55:34.310Z,1.21
2023-05-06T12:56:34.352Z,1.22
2023-05-06T12:57:34.403Z,1.19
2023-05-06T12:58:34.449Z,1.20
2023-05-06T12:59:34.497Z,1.21
2023-05-06T13:00:34.631Z,1.21
2023-05-06T13:01:34.657Z,1.20
2023-05-06T13:02:34.727Z,1.20
2023-05-06T13:03:38.034Z,1.18
2023-05-06T13:04:34.667Z,1.19
2023-05-06T13:05:34.667Z,1.19
2023-05-06T13:06:34.659Z,1.19
2023-05-06T13:07:34.647Z,1.18
2023-05-06T13:08:34.641Z,1.16
2023-05-06T13:09:34.644Z,1.19
2023-05-06T13:10:34.635Z,1.18
2023-05-06T13:11:34.616Z,1.18
2023-05-06T13:12:34.692Z,1.17
2023-05-06T13:13:34.620Z,1.17
2023-05-06T13:14:35.263Z,1.15
2023-05-06T13:15:34.594Z,1.19
2023-05-06T13:16:34.819Z,1.21
2023-05-06T13:17:34.622Z,1.18
2023-05-06T13:18:34.576Z,1.17